AEE86N LGAV-LOWW
Flight info
| Callsign | AEE86N |
|---|---|
| Flight time | N/A |
| Altitude | 36000 |
| Route | KOR UL613 YNN UL604 DIMIS DCT RETRA DCT GACMO DCT LOPKU DCT BOSNA DCT OBUTI OBUTI2W |
| Aircraft | A320/M-SDE3FGHIRWY/LB1 |
Departure
| Time | N/A |
|---|---|
| Airport | Athens Eleftherios Venizelos International Airport (LGAV) |
Arrival
| Time | 2026-05-04 10:16 |
|---|---|
| Airport | Vienna International Airport (LOWW) |
| Time | Latitude | Longitude | Altitude | Speed | Heading |
|---|---|---|---|---|---|
| 2026-05-04 09:34 | 44.65370 | 17.55741 | 36153 ft | 416 kts | 332° |
| 2026-05-04 09:34 | 44.67948 | 17.53887 | 36152 ft | 417 kts | 332° |
| 2026-05-04 09:34 | 44.73109 | 17.50164 | 36141 ft | 417 kts | 332° |
| 2026-05-04 09:35 | 44.78277 | 17.46431 | 36144 ft | 417 kts | 332° |
| 2026-05-04 09:35 | 44.83417 | 17.42721 | 36148 ft | 418 kts | 332° |
| 2026-05-04 09:37 | 45.04135 | 17.27674 | 36162 ft | 419 kts | 332° |
| 2026-05-04 09:38 | 45.09316 | 17.23884 | 36161 ft | 420 kts | 332° |
| 2026-05-04 09:38 | 45.14510 | 17.20080 | 36159 ft | 420 kts | 332° |
| 2026-05-04 09:39 | 45.19704 | 17.16270 | 36146 ft | 421 kts | 332° |
| 2026-05-04 09:39 | 45.24904 | 17.12452 | 36151 ft | 421 kts | 332° |
| 2026-05-04 09:40 | 45.30106 | 17.08619 | 36165 ft | 421 kts | 332° |
| 2026-05-04 09:40 | 45.35311 | 17.04778 | 36153 ft | 422 kts | 332° |
| 2026-05-04 09:42 | 45.58355 | 16.99837 | 36147 ft | 427 kts | 355° |
| 2026-05-04 09:43 | 45.64300 | 16.99501 | 36148 ft | 428 kts | 355° |
| 2026-05-04 09:43 | 45.70253 | 16.99158 | 36147 ft | 428 kts | 356° |
| 2026-05-04 09:44 | 45.76166 | 16.98815 | 36150 ft | 428 kts | 356° |
| 2026-05-04 09:46 | 46.00010 | 16.97451 | 36146 ft | 429 kts | 356° |
| 2026-05-04 09:46 | 46.05988 | 16.97089 | 36148 ft | 430 kts | 356° |
| 2026-05-04 09:47 | 46.11938 | 16.96736 | 36157 ft | 430 kts | 356° |
| 2026-05-04 09:49 | 46.35790 | 16.95373 | 36146 ft | 431 kts | 356° |
| 2026-05-04 09:51 | 46.56701 | 16.93949 | 36149 ft | 432 kts | 355° |
| 2026-05-04 09:51 | 46.62719 | 16.93508 | 35429 ft | 435 kts | 355° |
| 2026-05-04 09:51 | 46.65734 | 16.93295 | 34847 ft | 435 kts | 355° |
| 2026-05-04 09:52 | 46.68758 | 16.93088 | 34264 ft | 434 kts | 355° |
| 2026-05-04 09:52 | 46.71775 | 16.92878 | 33621 ft | 435 kts | 355° |
| 2026-05-04 09:52 | 46.74801 | 16.92662 | 32968 ft | 436 kts | 355° |
| 2026-05-04 09:52 | 46.77833 | 16.92443 | 32343 ft | 437 kts | 355° |
| 2026-05-04 09:53 | 46.80879 | 16.92222 | 31721 ft | 439 kts | 355° |
| 2026-05-04 09:53 | 46.83934 | 16.92003 | 31108 ft | 442 kts | 355° |
| 2026-05-04 09:53 | 46.87018 | 16.91787 | 30522 ft | 445 kts | 356° |
| 2026-05-04 09:53 | 46.90115 | 16.91570 | 29894 ft | 447 kts | 356° |
| 2026-05-04 09:54 | 46.93223 | 16.91349 | 29251 ft | 447 kts | 356° |
| 2026-05-04 09:54 | 46.96325 | 16.91124 | 28697 ft | 444 kts | 356° |
| 2026-05-04 09:54 | 46.99400 | 16.90904 | 28155 ft | 441 kts | 356° |
| 2026-05-04 09:54 | 47.02453 | 16.90690 | 27638 ft | 439 kts | 356° |
| 2026-05-04 09:55 | 47.05499 | 16.90477 | 27170 ft | 436 kts | 356° |
| 2026-05-04 09:55 | 47.08516 | 16.90263 | 26709 ft | 434 kts | 356° |
| 2026-05-04 09:55 | 47.11525 | 16.90043 | 26272 ft | 432 kts | 356° |
| 2026-05-04 09:55 | 47.14525 | 16.89825 | 25899 ft | 431 kts | 356° |
| 2026-05-04 09:56 | 47.17478 | 16.89612 | 25541 ft | 430 kts | 356° |
| 2026-05-04 09:56 | 47.20507 | 16.89393 | 25092 ft | 429 kts | 356° |
| 2026-05-04 09:56 | 47.23444 | 16.89179 | 24620 ft | 428 kts | 356° |
| 2026-05-04 09:56 | 47.26411 | 16.88962 | 24146 ft | 426 kts | 356° |
| 2026-05-04 09:57 | 47.29366 | 16.88746 | 23660 ft | 424 kts | 356° |
| 2026-05-04 09:57 | 47.32309 | 16.88530 | 23260 ft | 423 kts | 356° |
| 2026-05-04 09:57 | 47.35247 | 16.88315 | 22876 ft | 422 kts | 356° |
| 2026-05-04 09:57 | 47.38176 | 16.88102 | 22493 ft | 421 kts | 356° |
| 2026-05-04 09:58 | 47.41099 | 16.87891 | 22115 ft | 420 kts | 356° |
| 2026-05-04 09:58 | 47.44019 | 16.87679 | 21747 ft | 421 kts | 356° |
| 2026-05-04 09:58 | 47.46945 | 16.87472 | 21381 ft | 421 kts | 356° |
| 2026-05-04 10:00 | 47.67055 | 16.85988 | 18957 ft | 410 kts | 355° |
| 2026-05-04 10:00 | 47.69896 | 16.85779 | 18573 ft | 407 kts | 355° |
| 2026-05-04 10:02 | 47.89253 | 16.84363 | 14992 ft | 388 kts | 355° |
| 2026-05-04 10:04 | 48.06906 | 16.78293 | 11506 ft | 366 kts | 330° |
| 2026-05-04 10:04 | 48.09139 | 16.76574 | 11262 ft | 356 kts | 330° |
| 2026-05-04 10:04 | 48.11292 | 16.74920 | 11027 ft | 349 kts | 330° |
| 2026-05-04 10:04 | 48.13462 | 16.73249 | 10777 ft | 343 kts | 330° |
| 2026-05-04 10:05 | 48.15542 | 16.71645 | 10535 ft | 339 kts | 330° |
| 2026-05-04 10:05 | 48.17614 | 16.70046 | 10293 ft | 330 kts | 330° |
| 2026-05-04 10:05 | 48.19622 | 16.68496 | 10057 ft | 319 kts | 330° |
| 2026-05-04 10:05 | 48.21562 | 16.67014 | 9806 ft | 308 kts | 332° |
| 2026-05-04 10:06 | 48.23559 | 16.65895 | 9538 ft | 306 kts | 342° |
| 2026-05-04 10:06 | 48.25592 | 16.65050 | 9334 ft | 301 kts | 342° |
| 2026-05-04 10:06 | 48.27611 | 16.64206 | 9007 ft | 301 kts | 342° |
| 2026-05-04 10:08 | 48.39549 | 16.59127 | 7409 ft | 291 kts | 336° |
| 2026-05-04 10:08 | 48.41208 | 16.57506 | 7093 ft | 282 kts | 308° |
| 2026-05-04 10:08 | 48.42156 | 16.55029 | 6804 ft | 267 kts | 281° |
| 2026-05-04 10:08 | 48.42284 | 16.52382 | 6687 ft | 245 kts | 258° |
| 2026-05-04 10:09 | 48.41997 | 16.50783 | 6589 ft | 234 kts | 244° |
| 2026-05-04 10:09 | 48.41017 | 16.48617 | 6163 ft | 230 kts | 221° |
| 2026-05-04 10:09 | 48.40141 | 16.47673 | 5987 ft | 230 kts | 207° |
| 2026-05-04 10:09 | 48.38628 | 16.46964 | 5748 ft | 229 kts | 187° |
| 2026-05-04 10:10 | 48.36528 | 16.47353 | 5321 ft | 233 kts | 167° |
| 2026-05-04 10:10 | 48.35470 | 16.47799 | 5121 ft | 233 kts | 167° |
| 2026-05-04 10:10 | 48.33402 | 16.48688 | 4740 ft | 234 kts | 167° |
| 2026-05-04 10:10 | 48.31857 | 16.49355 | 4582 ft | 226 kts | 165° |
| 2026-05-04 10:11 | 48.30844 | 16.49793 | 4387 ft | 224 kts | 165° |
| 2026-05-04 10:11 | 48.29362 | 16.50430 | 4089 ft | 218 kts | 165° |
| 2026-05-04 10:11 | 48.27942 | 16.51036 | 3813 ft | 210 kts | 166° |
| 2026-05-04 10:11 | 48.26591 | 16.51613 | 3543 ft | 194 kts | 167° |
| 2026-05-04 10:12 | 48.25337 | 16.52148 | 3290 ft | 180 kts | 168° |
| 2026-05-04 10:12 | 48.24174 | 16.52643 | 3061 ft | 168 kts | 168° |
| 2026-05-04 10:12 | 48.23083 | 16.53107 | 2838 ft | 159 kts | 167° |
| 2026-05-04 10:12 | 48.22038 | 16.53550 | 2648 ft | 154 kts | 166° |
| 2026-05-04 10:13 | 48.21020 | 16.53982 | 2440 ft | 151 kts | 166° |
| 2026-05-04 10:13 | 48.20031 | 16.54402 | 2253 ft | 142 kts | 165° |
| 2026-05-04 10:13 | 48.19110 | 16.54792 | 2070 ft | 134 kts | 165° |
| 2026-05-04 10:13 | 48.18221 | 16.55169 | 1877 ft | 133 kts | 164° |
| 2026-05-04 10:14 | 48.17338 | 16.55544 | 1708 ft | 131 kts | 164° |
| 2026-05-04 10:14 | 48.16464 | 16.55914 | 1533 ft | 131 kts | 163° |
| 2026-05-04 10:16 | 48.10786 | 16.58313 | 609 ft | 39 kts | 172° |
| 2026-05-04 10:16 | 48.10651 | 16.58262 | 609 ft | 18 kts | 195° |
| 2026-05-04 10:16 | 48.10568 | 16.58171 | 616 ft | 16 kts | 279° |
| 2026-05-04 10:16 | 48.10663 | 16.58097 | 611 ft | 17 kts | 342° |
| 2026-05-04 10:17 | 48.10780 | 16.58044 | 614 ft | 19 kts | 345° |
| 2026-05-04 10:17 | 48.10911 | 16.57991 | 621 ft | 20 kts | 344° |
| 2026-05-04 10:19 | 48.11496 | 16.56680 | 617 ft | 30 kts | 295° |
| 2026-05-04 10:19 | 48.11581 | 16.56416 | 615 ft | 24 kts | 296° |
| 2026-05-04 10:19 | 48.11645 | 16.56224 | 610 ft | 19 kts | 297° |
| 2026-05-04 10:19 | 48.11709 | 16.56036 | 618 ft | 21 kts | 297° |
| 2026-05-04 10:20 | 48.11775 | 16.55829 | 617 ft | 23 kts | 296° |
| 2026-05-04 10:20 | 48.11821 | 16.55697 | 623 ft | 12 kts | 322° |
| 2026-05-04 10:20 | 48.11890 | 16.55696 | 621 ft | 6 kts | 20° |
| 2026-05-04 10:20 | 48.11907 | 16.55704 | 609 ft | 0 kts | 19° |